Time;durP1;ratioP1;P1;durP2;ratioP2;P2;SDS_P1;SDS_P2;PMS_P1;PMS_P2;Temp;Humidity;BMP_temperature;BMP_pressure;BME280_temperature;BME280_humidity;BME280_pressure;Samples;Min_cycle;Max_cycle;Signal;HPM_P1;HPM_P2
2024/03/02 00:02:44;;;;;;;14.98;8.70;;;;;;;15.59;93.22;99425.44;5093949;28;20150;-79
2024/03/02 00:05:51;;;;;;;15.13;8.50;;;;;;;15.63;92.68;99415.91;5094339;28;20051;-79
2024/03/02 00:08:58;;;;;;;17.25;7.95;;;;;;;15.61;93.26;99419.84;5094396;28;20047;-79
2024/03/02 00:12:05;;;;;;;15.18;8.63;;;;;;;15.69;92.96;99429.72;5094369;28;20043;-79
2024/03/02 00:15:43;;;;;;;16.67;8.13;;;;;;;15.63;93.06;99425.91;5094119;28;20047;-78
2024/03/02 00:18:48;;;;;;;29.55;9.30;;;;;;;15.72;93.12;99427.47;5093204;28;20068;-77
2024/03/02 00:21:52;;;;;;;16.13;9.05;;;;;;;15.81;92.46;99434.44;5093939;28;20379;-78
2024/03/02 00:24:57;;;;;;;22.40;8.68;;;;;;;15.49;93.83;99432.19;5069892;28;20050;-78
2024/03/02 00:28:02;;;;;;;23.83;9.98;;;;;;;15.73;92.95;99431.00;5093832;28;20110;-79
2024/03/02 00:31:08;;;;;;;21.73;7.75;;;;;;;16.05;91.09;99435.97;5081618;28;20051;-78
2024/03/02 00:34:16;;;;;;;16.27;8.77;;;;;;;16.32;90.14;99440.63;5093846;28;20062;-79
2024/03/02 00:37:20;;;;;;;24.17;9.95;;;;;;;16.27;89.94;99441.19;5081659;28;20055;-79
2024/03/02 00:40:29;;;;;;;17.27;7.68;;;;;;;16.25;90.05;99437.00;5094019;28;20070;-75
2024/03/02 00:43:43;;;;;;;16.35;8.23;;;;;;;16.18;90.29;99442.38;5093788;28;20051;-79
2024/03/02 00:46:49;;;;;;;17.05;9.55;;;;;;;16.03;90.99;99444.28;5093902;28;20051;-79
2024/03/02 00:49:54;;;;;;;19.52;9.38;;;;;;;15.97;90.98;99439.63;5093901;28;20067;-79
2024/03/02 00:52:58;;;;;;;23.58;10.55;;;;;;;15.95;91.60;99436.28;5069397;28;20067;-79
2024/03/02 00:56:03;;;;;;;18.10;9.13;;;;;;;16.05;91.48;99439.50;5093887;28;20051;-80
2024/03/02 00:59:09;;;;;;;15.90;9.05;;;;;;;16.10;91.04;99439.78;5093654;28;20399;-79
2024/03/02 01:02:13;;;;;;;20.67;9.23;;;;;;;16.35;89.68;99442.94;5095057;28;20105;-80
2024/03/02 01:05:18;;;;;;;19.95;9.18;;;;;;;16.33;89.49;99444.16;5093713;28;20071;-80
2024/03/02 01:08:24;;;;;;;23.80;9.07;;;;;;;16.06;91.02;99451.19;5093709;28;20051;-80
2024/03/02 01:11:29;;;;;;;20.80;8.45;;;;;;;15.80;92.69;99438.16;5093380;28;20051;-79
2024/03/02 01:14:35;;;;;;;12.63;7.93;;;;;;;15.67;93.39;99448.00;5097612;28;20070;-80
2024/03/02 01:17:39;;;;;;;23.02;9.95;;;;;;;15.53;93.34;99444.28;5096741;28;20395;-79
2024/03/02 01:20:44;;;;;;;25.05;12.57;;;;;;;15.70;92.98;99443.06;5097559;28;20051;-80
2024/03/02 01:23:49;;;;;;;25.25;10.00;;;;;;;15.94;91.59;99445.44;5084986;28;20051;-80
2024/03/02 01:26:53;;;;;;;23.23;11.65;;;;;;;15.52;93.45;99448.03;5097561;28;20066;-80
2024/03/02 01:29:59;;;;;;;18.80;11.60;;;;;;;15.53;93.42;99442.44;5097334;28;20051;-80
2024/03/02 01:33:05;;;;;;;23.08;12.20;;;;;;;15.65;93.12;99439.25;5097452;28;20055;-79
2024/03/02 01:36:10;;;;;;;20.88;11.88;;;;;;;15.56;93.17;99446.63;5097071;28;20055;-78
2024/03/02 01:39:14;;;;;;;17.20;12.65;;;;;;;15.63;93.39;99441.31;5097252;28;20055;-80
2024/03/02 01:42:19;;;;;;;26.40;12.18;;;;;;;15.85;91.62;99437.63;5097259;28;20058;-79
2024/03/02 01:45:24;;;;;;;14.23;11.70;;;;;;;15.84;92.33;99444.91;5096876;28;20055;-78
2024/03/02 01:48:28;;;;;;;21.67;12.43;;;;;;;15.85;92.28;99443.84;5097032;28;20051;-77
2024/03/02 01:51:33;;;;;;;23.80;14.10;;;;;;;15.67;93.32;99439.91;5096976;28;20454;-78
2024/03/02 01:54:37;;;;;;;20.02;13.77;;;;;;;15.67;92.74;99446.16;5096962;28;20051;-78
2024/03/02 01:57:44;;;;;;;23.02;12.57;;;;;;;15.65;92.95;99440.09;5096752;28;20059;-78
2024/03/02 02:00:50;;;;;;;21.38;13.63;;;;;;;15.74;92.24;99438.94;5095500;28;20389;-78
2024/03/02 02:03:55;;;;;;;24.02;13.82;;;;;;;15.77;92.50;99449.41;5096800;28;20070;-79
2024/03/02 02:07:00;;;;;;;19.83;13.05;;;;;;;15.50;93.18;99441.97;5096705;28;20055;-78
2024/03/02 02:10:05;;;;;;;22.02;13.80;;;;;;;15.70;92.65;99443.06;5096725;28;20047;-79
2024/03/02 02:13:09;;;;;;;26.75;14.88;;;;;;;15.87;92.18;99446.38;5096276;28;20047;-79
2024/03/02 02:16:14;;;;;;;25.13;14.30;;;;;;;16.11;90.24;99443.31;5096636;28;20097;-78
2024/03/02 02:19:18;;;;;;;23.35;14.52;;;;;;;15.82;91.57;99436.13;5096398;28;20055;-78
2024/03/02 02:22:23;;;;;;;29.02;15.82;;;;;;;15.78;92.01;99425.84;5096499;28;20478;-77
2024/03/02 02:25:28;;;;;;;21.95;14.82;;;;;;;15.73;91.77;99431.84;5083679;28;20059;-76
2024/03/02 02:28:33;;;;;;;24.65;16.20;;;;;;;15.72;91.86;99432.91;5096185;28;20046;-79
2024/03/02 02:31:41;;;;;;;23.83;15.80;;;;;;;15.89;91.59;99428.09;5083694;28;20382;-79
2024/03/02 02:34:46;;;;;;;29.23;15.43;;;;;;;16.03;91.18;99428.03;5095567;28;20055;-78
2024/03/02 02:37:52;;;;;;;22.27;15.95;;;;;;;15.46;92.93;99430.69;5083642;28;20051;-78
2024/03/02 02:40:56;;;;;;;24.77;15.60;;;;;;;15.77;91.68;99422.34;5095984;28;20071;-78
2024/03/02 02:44:00;;;;;;;25.73;15.85;;;;;;;15.81;91.96;99423.63;5095934;28;20415;-79
2024/03/02 02:47:05;;;;;;;25.98;14.88;;;;;;;15.88;90.93;99424.53;5095876;28;20066;-78
2024/03/02 02:50:11;;;;;;;20.98;14.15;;;;;;;15.72;90.74;99415.81;5095791;28;20059;-80
2024/03/02 02:53:16;;;;;;;20.25;14.73;;;;;;;15.67;91.97;99415.53;5096030;28;20059;-79
2024/03/02 02:56:20;;;;;;;26.38;14.25;;;;;;;15.71;91.95;99422.25;5083235;28;20372;-79
2024/03/02 02:59:25;;;;;;;26.13;16.02;;;;;;;15.50;92.77;99420.34;5095681;28;20150;-79
2024/03/02 03:02:29;;;;;;;25.42;16.17;;;;;;;15.37;93.28;99426.38;5095249;28;20051;-78
2024/03/02 03:05:34;;;;;;;27.90;16.67;;;;;;;15.35;93.05;99427.59;5095231;28;20410;-79
2024/03/02 03:08:39;;;;;;;24.00;16.52;;;;;;;15.44;93.09;99418.34;5095446;28;20486;-79
2024/03/02 03:11:44;;;;;;;30.48;17.70;;;;;;;15.21;93.87;99421.16;5095298;28;20067;-78
2024/03/02 03:14:48;;;;;;;25.30;17.35;;;;;;;15.31;93.31;99418.16;5095248;28;20058;-78
2024/03/02 03:17:53;;;;;;;21.70;17.33;;;;;;;15.38;93.36;99422.63;5095252;28;20055;-79
2024/03/02 03:20:58;;;;;;;23.77;16.30;;;;;;;15.26;93.65;99429.53;5095184;28;20055;-79
2024/03/02 03:24:02;;;;;;;23.13;15.23;;;;;;;15.22;94.31;99425.56;5094817;28;20062;-79
2024/03/02 03:27:06;;;;;;;24.23;16.13;;;;;;;15.48;92.25;99425.09;5095057;28;20477;-78
2024/03/02 03:30:11;;;;;;;23.88;15.45;;;;;;;15.55;91.71;99429.53;5094949;28;20363;-78
2024/03/02 03:33:16;;;;;;;24.58;16.83;;;;;;;15.74;91.03;99425.41;5094092;28;20066;-79
2024/03/02 03:36:20;;;;;;;21.08;14.80;;;;;;;15.77;91.38;99427.75;5093959;28;20051;-79
2024/03/02 03:39:25;;;;;;;20.67;14.60;;;;;;;15.83;91.02;99432.38;5094539;28;20052;-80
2024/03/02 03:42:29;;;;;;;19.70;14.90;;;;;;;15.61;91.79;99431.50;5094688;28;20051;-79
2024/03/02 03:45:34;;;;;;;26.00;15.23;;;;;;;15.52;92.50;99431.81;5089905;28;20042;-79
2024/03/02 03:48:38;;;;;;;23.92;14.85;;;;;;;15.53;92.12;99434.31;5114989;28;20058;-79
2024/03/02 03:51:43;;;;;;;27.10;14.80;;;;;;;15.11;93.67;99442.22;5114659;28;20055;-79
2024/03/02 03:54:48;;;;;;;18.15;13.43;;;;;;;15.35;93.00;99439.25;5114005;28;20430;-79
2024/03/02 03:57:52;;;;;;;29.65;16.35;;;;;;;15.43;92.16;99443.72;5114818;28;20466;-79
2024/03/02 04:00:56;;;;;;;26.23;14.20;;;;;;;15.45;92.38;99444.41;5114751;28;20067;-79
2024/03/02 04:04:04;;;;;;;22.42;13.80;;;;;;;15.37;92.62;99450.72;5114552;28;20058;-79
2024/03/02 04:07:08;;;;;;;17.83;13.25;;;;;;;15.54;91.76;99446.81;5114617;28;20050;-78
2024/03/02 04:10:13;;;;;;;18.05;13.85;;;;;;;15.88;90.18;99451.59;5114643;28;20054;-80
2024/03/02 04:13:17;;;;;;;19.00;13.60;;;;;;;15.88;90.20;99453.47;5113800;28;20050;-80
2024/03/02 04:16:22;;;;;;;20.45;14.30;;;;;;;15.71;90.79;99450.16;5114669;28;20485;-81
2024/03/02 04:19:27;;;;;;;19.80;13.63;;;;;;;15.99;89.47;99461.09;5114672;28;20051;-81
2024/03/02 04:22:34;;;;;;;22.52;13.88;;;;;;;15.53;91.65;99461.34;5114117;28;20070;-80
2024/03/02 04:25:38;;;;;;;21.20;15.15;;;;;;;14.93;94.01;99466.94;5114411;28;20058;-80
2024/03/02 04:28:42;;;;;;;22.42;14.57;;;;;;;15.47;91.98;99466.69;5101927;28;20051;-77
2024/03/02 04:31:47;;;;;;;18.40;14.82;;;;;;;15.12;93.29;99470.09;5101727;28;20170;-77
2024/03/02 04:34:52;;;;;;;16.67;13.48;;;;;;;14.51;94.82;99472.03;5113850;28;20051;-78
2024/03/02 04:37:56;;;;;;;19.95;14.20;;;;;;;14.57;96.37;99471.28;5113544;28;20069;-79
2024/03/02 04:41:00;;;;;;;20.73;13.90;;;;;;;14.96;94.58;99469.22;5113238;28;20390;-77
2024/03/02 04:44:07;;;;;;;19.88;15.32;;;;;;;15.05;94.49;99471.84;5114093;28;20078;-79
2024/03/02 04:47:12;;;;;;;17.67;14.80;;;;;;;14.97;93.88;99479.03;5101111;28;20066;-79
2024/03/02 04:50:17;;;;;;;19.05;14.35;;;;;;;15.12;93.90;99475.50;5113789;28;20402;-78
2024/03/02 04:53:21;;;;;;;20.67;14.60;;;;;;;15.00;93.77;99472.41;5113459;28;20055;-77
2024/03/02 04:59:36;;;;;;;22.90;15.15;;;;;;;15.21;93.04;99469.81;5113914;28;20058;-79
2024/03/02 05:02:40;;;;;;;20.77;14.18;;;;;;;15.31;92.54;99478.50;5113788;28;20398;-78
2024/03/02 05:05:44;;;;;;;23.63;16.08;;;;;;;15.36;92.39;99480.63;5112475;28;20415;-79
2024/03/02 05:08:49;;;;;;;22.05;15.40;;;;;;;15.13;92.68;99486.16;5113362;28;20044;-77
2024/03/02 05:12:10;;;;;;;22.85;15.65;;;;;;;15.05;93.63;99490.78;5112833;28;20419;-77
2024/03/02 05:15:15;;;;;;;21.55;14.50;;;;;;;15.08;93.47;99488.56;5113715;28;20050;-78
2024/03/02 05:18:19;;;;;;;19.80;14.65;;;;;;;15.20;93.06;99491.66;5101094;28;20044;-80
2024/03/02 05:21:25;;;;;;;22.67;15.00;;;;;;;14.91;93.78;99492.44;5113824;28;20043;-80
2024/03/02 05:24:29;;;;;;;20.05;13.90;;;;;;;15.01;93.49;99495.69;5113366;28;20044;-76
2024/03/02 05:27:33;;;;;;;19.00;13.60;;;;;;;15.09;92.97;99495.63;5113582;28;20481;-81
2024/03/02 05:30:38;;;;;;;17.90;13.48;;;;;;;15.04;93.23;99511.56;5101024;28;20070;-79
2024/03/02 05:33:43;;;;;;;20.67;13.98;;;;;;;15.00;93.52;99504.84;5113588;28;20054;-79
2024/03/02 05:36:47;;;;;;;17.98;13.52;;;;;;;15.22;92.41;99506.66;5113532;28;20055;-80
2024/03/02 05:39:53;;;;;;;20.67;13.70;;;;;;;14.99;93.35;99501.31;5113534;28;20043;-79
2024/03/02 05:42:57;;;;;;;15.80;13.52;;;;;;;15.31;91.65;99510.09;5088258;28;20051;-78
2024/03/02 05:46:02;;;;;;;21.40;15.07;;;;;;;15.25;92.55;99510.84;5113369;28;20062;-78
2024/03/02 05:49:10;;;;;;;17.88;12.45;;;;;;;15.53;91.11;99525.44;5113826;28;20078;-79
2024/03/02 05:52:15;;;;;;;19.60;13.98;;;;;;;15.46;91.25;99524.50;5113035;28;20051;-78
2024/03/02 05:55:19;;;;;;;19.77;14.20;;;;;;;15.29;91.66;99533.78;5100888;28;20046;-79
2024/03/02 05:58:46;;;;;;;15.63;13.10;;;;;;;14.89;92.88;99525.03;5113918;28;20047;-78
2024/03/02 06:01:51;;;;;;;18.90;13.13;;;;;;;15.37;91.80;99531.00;5116974;28;20050;-80
2024/03/02 06:04:56;;;;;;;17.65;12.68;;;;;;;14.85;93.28;99537.25;5116414;28;20051;-80
2024/03/02 06:08:01;;;;;;;19.85;13.45;;;;;;;15.29;92.52;99537.34;5116022;28;20051;-80
2024/03/02 06:11:06;;;;;;;20.80;13.02;;;;;;;15.17;92.66;99540.66;5116925;28;20386;-79
2024/03/02 06:14:10;;;;;;;19.48;13.07;;;;;;;15.23;92.38;99535.38;5116763;28;20046;-81
2024/03/02 06:17:15;;;;;;;16.67;12.00;;;;;;;15.28;92.10;99545.66;5116824;28;20094;-81
2024/03/02 06:20:19;;;;;;;16.65;11.95;;;;;;;15.40;91.36;99544.16;5096345;28;20505;-81
2024/03/02 06:23:28;;;;;;;16.77;11.95;;;;;;;15.14;92.39;99546.44;5096149;28;20398;-79
2024/03/02 06:26:32;;;;;;;15.02;11.80;;;;;;;15.35;91.97;99552.00;5083693;28;20383;-80
2024/03/02 06:29:36;;;;;;;20.70;13.35;;;;;;;15.31;91.40;99547.94;5096415;28;20044;-79
2024/03/02 06:32:41;;;;;;;20.60;11.57;;;;;;;15.33;91.63;99554.03;5083594;28;20052;-81
2024/03/02 06:35:45;;;;;;;14.68;10.70;;;;;;;15.19;91.84;99557.53;5095983;28;20051;-81
2024/03/02 06:38:50;;;;;;;14.18;10.93;;;;;;;15.42;91.44;99563.75;5083647;28;20062;-81
2024/03/02 06:41:55;;;;;;;18.38;12.07;;;;;;;15.21;91.69;99566.34;5095967;28;20044;-79
2024/03/02 06:45:00;;;;;;;15.80;10.50;;;;;;;15.45;91.25;99572.38;5095863;28;20051;-80
2024/03/02 06:48:05;;;;;;;11.90;9.15;;;;;;;15.19;91.92;99569.19;5095423;28;20102;-81
2024/03/02 06:51:09;;;;;;;12.40;9.80;;;;;;;15.25;91.95;99575.75;5083267;28;20055;-80
2024/03/02 06:54:14;;;;;;;12.45;8.77;;;;;;;15.09;92.22;99583.97;5092803;28;20067;-80
2024/03/02 06:57:20;;;;;;;11.75;8.65;;;;;;;15.07;92.09;99576.06;5088104;28;20426;-80
2024/03/02 07:00:25;;;;;;;11.65;9.30;;;;;;;15.04;92.65;99571.03;5095568;28;20486;-79
2024/03/02 07:03:29;;;;;;;12.07;9.00;;;;;;;15.05;93.35;99590.78;5094848;28;20494;-80
2024/03/02 07:06:34;;;;;;;10.23;8.43;;;;;;;15.42;91.77;99586.22;5095587;28;20481;-80
2024/03/02 07:09:39;;;;;;;9.55;8.00;;;;;;;15.21;92.31;99587.97;5095541;28;20051;-78
2024/03/02 07:12:44;;;;;;;11.05;8.00;;;;;;;15.51;91.10;99595.97;5095402;28;20063;-79
2024/03/02 07:19:12;;;;;;;10.70;8.20;;;;;;;15.59;89.94;99603.16;5095184;28;20047;-80
2024/03/02 07:22:17;;;;;;;13.10;7.40;;;;;;;15.73;89.49;99596.91;5095024;28;20047;-81
2024/03/02 07:25:22;;;;;;;11.63;7.75;;;;;;;15.68;90.09;99612.84;5094899;28;20043;-79
2024/03/02 07:28:28;;;;;;;10.15;8.32;;;;;;;15.52;90.07;99610.31;5087943;28;20055;-74
2024/03/02 07:31:33;;;;;;;10.75;8.20;;;;;;;14.78;93.49;99614.66;5089438;28;20044;-75
2024/03/02 07:34:38;;;;;;;11.27;9.02;;;;;;;14.73;93.84;99621.59;5090687;28;20051;-75
2024/03/02 07:37:43;;;;;;;10.90;9.00;;;;;;;14.19;96.08;99634.19;5092223;28;20051;-75
2024/03/02 07:40:50;;;;;;;10.32;8.45;;;;;;;14.32;96.84;99624.53;5092239;28;20051;-75
2024/03/02 07:43:55;;;;;;;12.85;8.57;;;;;;;14.16;97.44;99640.78;5091213;28;20059;-74
2024/03/02 07:47:00;;;;;;;12.70;9.23;;;;;;;14.18;96.96;99637.88;5082624;28;20051;-74
2024/03/02 07:50:06;;;;;;;13.20;9.55;;;;;;;14.00;98.10;99640.00;5089798;28;20071;-75
2024/03/02 07:53:11;;;;;;;13.77;9.90;;;;;;;14.48;96.46;99639.81;5081229;28;20055;-79
2024/03/02 07:56:21;;;;;;;15.15;10.27;;;;;;;14.40;96.64;99647.94;5091143;28;20047;-78
2024/03/02 07:59:26;;;;;;;13.23;10.07;;;;;;;14.52;96.24;99646.53;5079532;28;20055;-78
2024/03/02 08:02:31;;;;;;;11.35;9.55;;;;;;;14.65;95.96;99652.19;5091316;28;20036;-77
2024/03/02 08:05:36;;;;;;;11.25;8.68;;;;;;;14.58;96.76;99645.84;5089738;28;20506;-77
2024/03/02 08:08:41;;;;;;;10.93;8.52;;;;;;;14.46;96.75;99651.81;5077689;28;20047;-79
2024/03/02 08:11:45;;;;;;;10.65;8.70;;;;;;;14.43;96.70;99654.84;5090719;28;20051;-80
2024/03/02 08:14:50;;;;;;;9.95;8.07;;;;;;;15.14;93.45;99651.84;5091867;28;20067;-79
2024/03/02 08:17:56;;;;;;;11.75;9.27;;;;;;;15.13;93.56;99655.59;5092688;28;20047;-82
2024/03/02 08:21:00;;;;;;;13.18;8.65;;;;;;;15.35;92.02;99655.59;5090306;28;20039;-79
2024/03/02 08:24:05;;;;;;;11.27;8.20;;;;;;;14.80;95.45;99660.38;5085617;28;20055;-79
2024/03/02 08:27:11;;;;;;;10.75;8.48;;;;;;;15.39;91.97;99669.56;5073411;28;20051;-76
2024/03/02 08:30:15;;;;;;;10.65;8.70;;;;;;;15.16;92.81;99663.34;5073673;28;20064;-77
2024/03/02 08:33:20;;;;;;;12.15;9.13;;;;;;;15.41;92.10;99668.38;5075899;28;20051;-77
2024/03/02 08:36:24;;;;;;;11.27;10.07;;;;;;;15.30;91.98;99674.22;5063362;28;20071;-77
2024/03/02 08:39:29;;;;;;;15.68;12.05;;;;;;;15.67;91.59;99672.56;5087579;28;20051;-76
2024/03/02 08:42:34;;;;;;;14.00;10.85;;;;;;;15.79;90.62;99668.38;5074343;28;20059;-74
2024/03/02 08:45:41;;;;;;;15.68;12.50;;;;;;;15.46;92.07;99673.25;5092072;28;20400;-74
2024/03/02 08:48:47;;;;;;;16.65;12.45;;;;;;;15.49;91.90;99675.59;5091604;28;20047;-74
2024/03/02 08:51:54;;;;;;;18.13;13.77;;;;;;;15.61;92.33;99679.56;5094365;28;20391;-76
2024/03/02 08:54:59;;;;;;;22.30;15.07;;;;;;;15.61;91.56;99676.84;5120702;28;20039;-74
2024/03/02 08:58:05;;;;;;;19.85;15.27;;;;;;;15.67;91.06;99676.13;5120807;28;20046;-74
2024/03/02 09:01:11;;;;;;;20.48;16.13;;;;;;;15.40;91.09;99680.22;5133977;28;20043;-74
2024/03/02 09:04:16;;;;;;;23.73;16.92;;;;;;;15.61;90.65;99687.66;5133837;28;20062;-77
2024/03/02 09:07:22;;;;;;;25.23;17.08;;;;;;;15.63;90.83;99681.06;5133747;28;20047;-74
2024/03/02 09:10:26;;;;;;;25.67;17.83;;;;;;;15.71;89.99;99682.00;5110078;28;20067;-76
2024/03/02 09:13:33;;;;;;;26.58;17.83;;;;;;;15.92;89.78;99690.25;5112356;28;20058;-73
2024/03/02 09:16:38;;;;;;;29.30;19.08;;;;;;;15.63;90.45;99681.06;5080729;28;20051;-73
2024/03/02 09:19:43;;;;;;;24.80;18.00;;;;;;;15.86;90.36;99689.13;5101008;28;20047;-73
2024/03/02 09:22:49;;;;;;;27.23;19.00;;;;;;;15.85;90.00;99698.25;5076624;28;20485;-76
2024/03/02 09:25:53;;;;;;;27.88;19.33;;;;;;;16.19;89.30;99693.19;5068266;28;20043;-75
2024/03/02 09:28:58;;;;;;;30.48;19.95;;;;;;;15.88;90.30;99683.50;5082954;28;20414;-77
2024/03/02 09:32:05;;;;;;;25.92;20.27;;;;;;;16.05;89.88;99685.88;5084254;28;20050;-78
2024/03/02 09:35:11;;;;;;;27.60;19.92;;;;;;;16.23;88.72;99683.63;5069994;28;20069;-77
2024/03/02 09:38:16;;;;;;;28.65;20.17;;;;;;;16.42;88.03;99689.53;5059622;28;20051;-78
2024/03/02 09:41:21;;;;;;;27.42;19.30;;;;;;;16.42;88.42;99692.22;5071220;28;20051;-77
2024/03/02 09:44:26;;;;;;;28.30;19.90;;;;;;;16.23;88.83;99694.47;5071422;28;20059;-75
2024/03/02 09:47:31;;;;;;;27.45;19.40;;;;;;;16.29;89.21;99688.28;5061433;28;20039;-77
2024/03/02 09:50:35;;;;;;;25.85;20.27;;;;;;;16.19;88.10;99697.75;5072992;28;20036;-79
2024/03/02 09:53:40;;;;;;;25.08;19.73;;;;;;;16.31;87.89;99698.94;5061030;28;20043;-75
2024/03/02 09:56:45;;;;;;;24.98;19.05;;;;;;;16.64;87.04;99702.97;5078836;28;20050;-72
2024/03/02 09:59:49;;;;;;;29.25;19.75;;;;;;;16.85;85.92;99699.47;5071779;28;20048;-77
2024/03/02 10:02:54;;;;;;;23.00;17.65;;;;;;;17.55;83.90;99699.63;5070927;28;20510;-72
2024/03/02 10:06:18;;;;;;;23.52;15.80;;;;;;;17.70;81.42;99704.97;5071306;28;20056;-72
2024/03/02 10:09:32;;;;;;;20.92;16.48;;;;;;;17.54;81.66;99715.06;5059838;28;20040;-76
2024/03/02 10:12:36;;;;;;;20.05;15.15;;;;;;;17.20;82.79;99720.31;5071112;28;20040;-74
2024/03/02 10:15:41;;;;;;;17.95;15.30;;;;;;;17.07;83.51;99716.59;5071399;28;20044;-73
2024/03/02 10:18:45;;;;;;;24.83;20.65;;;;;;;17.32;81.22;99713.34;5072632;28;20043;-73
2024/03/02 10:21:52;;;;;;;19.40;14.80;;;;;;;16.90;82.47;99716.00;5072428;28;20048;-72
2024/03/02 10:24:56;;;;;;;16.13;12.02;;;;;;;16.98;82.24;99726.75;5083903;28;20051;-77
2024/03/02 10:28:01;;;;;;;14.90;12.30;;;;;;;16.78;83.62;99720.25;5060973;28;20066;-76
2024/03/02 10:31:06;;;;;;;15.32;12.93;;;;;;;16.73;84.65;99720.81;5072234;28;20051;-75
2024/03/02 10:34:11;;;;;;;18.52;13.23;;;;;;;16.61;84.45;99714.19;5071911;28;20051;-75
2024/03/02 10:37:19;;;;;;;16.23;12.02;;;;;;;17.03;84.03;99710.75;5072153;28;20051;-76
2024/03/02 10:40:23;;;;;;;11.75;9.45;;;;;;;17.00;83.57;99710.28;5083567;28;20063;-76
2024/03/02 10:43:28;;;;;;;11.93;9.93;;;;;;;16.97;83.86;99710.66;5071693;28;20047;-75
2024/03/02 10:46:34;;;;;;;10.85;9.57;;;;;;;17.23;82.92;99722.63;5071913;28;20051;-77
2024/03/02 10:49:43;;;;;;;10.63;9.52;;;;;;;17.06;82.41;99723.91;5071552;28;20078;-81
2024/03/02 10:52:48;;;;;;;10.93;8.57;;;;;;;16.64;84.03;99724.63;5085305;28;20047;-77
2024/03/02 10:56:02;;;;;;;8.85;7.95;;;;;;;16.94;83.38;99722.72;5063013;28;20491;-81
2024/03/02 10:59:35;;;;;;;9.25;8.23;;;;;;;17.19;82.87;99726.75;5051667;28;20494;-85
2024/03/02 11:02:44;;;;;;;10.68;9.02;;;;;;;16.68;83.85;99719.69;5051416;28;20051;-85
2024/03/02 11:05:49;;;;;;;11.30;10.13;;;;;;;16.80;84.53;99712.75;5062918;28;20059;-86
2024/03/02 11:08:59;;;;;;;15.63;10.10;;;;;;;16.74;84.45;99717.06;5040051;28;20052;-85
2024/03/02 11:12:13;;;;;;;8.40;6.97;;;;;;;16.86;83.77;99720.13;5047674;28;20039;-84
2024/03/02 11:15:21;;;;;;;7.60;6.65;;;;;;;16.80;83.97;99719.03;5050806;28;20048;-83
2024/03/02 11:18:27;;;;;;;7.32;6.53;;;;;;;16.72;83.66;99720.97;5062345;28;20044;-81
2024/03/02 11:21:34;;;;;;;8.60;7.10;;;;;;;16.74;83.82;99725.19;5050571;28;20056;-83
2024/03/02 11:24:38;;;;;;;9.52;7.18;;;;;;;16.55;84.17;99716.81;5039084;28;20063;-83
2024/03/02 11:27:45;;;;;;;12.57;8.43;;;;;;;16.66;84.18;99710.91;5050910;28;20059;-85
2024/03/02 11:30:50;;;;;;;10.02;7.28;;;;;;;17.08;83.17;99707.44;5039708;28;20071;-85
2024/03/02 11:33:55;;;;;;;7.13;6.43;;;;;;;17.28;82.54;99695.75;5062619;28;20056;-84
2024/03/02 11:37:02;;;;;;;7.18;5.93;;;;;;;17.31;82.01;99694.53;5050929;28;20052;-84
2024/03/02 11:40:10;;;;;;;6.68;5.97;;;;;;;17.47;81.36;99697.84;5039930;28;20051;-79
2024/03/02 11:43:15;;;;;;;7.80;6.05;;;;;;;17.23;80.93;99698.22;5071263;28;20047;-83
2024/03/02 11:46:22;;;;;;;8.45;6.18;;;;;;;17.14;81.01;99693.09;5081548;28;20055;-80
2024/03/02 11:49:45;;;;;;;8.10;5.50;;;;;;;16.97;81.70;99692.50;5058816;28;20056;-82
2024/03/02 11:52:49;;;;;;;7.07;5.93;;;;;;;17.09;80.75;99701.81;5072420;28;20055;-83
2024/03/02 11:55:56;;;;;;;7.43;5.70;;;;;;;17.20;79.99;99693.19;5089722;28;20050;-85
2024/03/02 11:59:01;;;;;;;7.40;5.80;;;;;;;17.09;81.29;99690.97;5090540;28;20051;-85
2024/03/02 12:02:06;;;;;;;6.05;5.40;;;;;;;17.31;80.89;99691.81;5090406;28;20252;-87
2024/03/02 12:05:10;;;;;;;6.20;5.60;;;;;;;17.01;80.87;99682.94;5090429;28;20058;-86
2024/03/02 12:08:21;;;;;;;7.35;5.68;;;;;;;17.13;81.60;99686.03;5090879;28;20055;-86
2024/03/02 12:11:26;;;;;;;5.72;5.13;;;;;;;17.22;81.09;99682.97;5090249;28;20122;-87
2024/03/02 12:14:32;;;;;;;5.88;5.28;;;;;;;17.53;80.29;99682.66;5114677;28;20055;-88
2024/03/02 12:17:38;;;;;;;5.35;4.47;;;;;;;17.46;80.53;99682.59;5114466;28;20050;-88
2024/03/02 12:20:42;;;;;;;6.07;4.57;;;;;;;17.77;79.37;99676.84;5114332;28;20054;-81
2024/03/02 12:23:47;;;;;;;6.82;3.92;;;;;;;17.95;79.32;99671.72;5114047;28;20069;-80
2024/03/02 12:26:51;;;;;;;6.20;4.90;;;;;;;17.96;79.71;99673.41;5113960;28;20410;-82
2024/03/02 12:29:57;;;;;;;6.40;4.60;;;;;;;17.80;78.66;99671.00;5114439;28;20047;-78
2024/03/02 12:33:02;;;;;;;6.60;4.85;;;;;;;17.77;77.03;99665.97;5100634;28;20052;-79
2024/03/02 12:36:11;;;;;;;5.78;4.47;;;;;;;17.43;77.89;99669.41;5114240;28;20055;-85
2024/03/02 12:39:18;;;;;;;5.78;3.83;;;;;;;17.53;77.37;99669.09;5104514;28;20047;-91
2024/03/02 12:42:24;;;;;;;7.10;4.72;;;;;;;17.58;77.15;99672.06;5108101;28;20511;-92
2024/03/02 12:45:29;;;;;;;5.32;4.03;;;;;;;17.59;77.74;99662.06;5104902;28;20058;-92
2024/03/02 12:48:35;;;;;;;5.65;3.92;;;;;;;17.93;78.20;99662.94;5116532;28;20050;-84
2024/03/02 12:51:41;;;;;;;6.95;5.15;;;;;;;17.84;77.38;99653.28;5114303;28;20051;-85
2024/03/02 12:54:45;;;;;;;11.32;7.50;;;;;;;17.96;76.56;99650.84;5087595;28;20055;-86
2024/03/02 12:57:53;;;;;;;5.40;4.50;;;;;;;17.84;78.00;99653.28;5093519;28;20067;-82
2024/03/02 13:01:09;;;;;;;5.55;3.88;;;;;;;17.99;78.69;99648.59;5093618;28;20067;-84
2024/03/02 13:04:13;;;;;;;5.50;3.88;;;;;;;17.88;78.52;99651.00;5093605;28;20051;-88
2024/03/02 13:07:19;;;;;;;6.43;4.88;;;;;;;17.86;78.40;99651.22;5093630;28;20046;-80
2024/03/02 13:10:23;;;;;;;5.43;4.28;;;;;;;18.05;77.76;99649.63;5097832;28;20051;-85
2024/03/02 13:13:31;;;;;;;7.38;3.85;;;;;;;18.10;76.78;99637.16;5097726;28;20055;-89
2024/03/02 13:16:42;;;;;;;5.72;3.97;;;;;;;18.24;76.18;99637.22;5097743;28;20059;-83
2024/03/02 13:19:54;;;;;;;4.68;3.05;;;;;;;18.02;75.88;99631.06;5097602;28;20395;-88
2024/03/02 13:22:59;;;;;;;5.63;3.33;;;;;;;17.88;76.41;99637.41;5097275;28;20521;-86
2024/03/02 13:26:04;;;;;;;4.72;3.33;;;;;;;18.01;76.36;99634.78;5097529;28;20051;-87
2024/03/02 13:29:09;;;;;;;6.85;3.50;;;;;;;18.07;77.56;99634.81;5095990;28;20047;-81
2024/03/02 13:32:14;;;;;;;5.38;3.17;;;;;;;17.93;76.39;99629.50;5096284;28;20055;-86
2024/03/02 13:35:20;;;;;;;3.58;2.88;;;;;;;17.78;77.67;99631.50;5097769;28;20054;-86
2024/03/02 13:38:25;;;;;;;3.58;2.67;;;;;;;17.70;77.76;99637.91;5099114;28;20051;-85
2024/03/02 13:41:30;;;;;;;3.55;2.50;;;;;;;17.51;79.23;99635.88;5097434;28;20067;-84
2024/03/02 13:44:36;;;;;;;5.03;2.72;;;;;;;17.60;77.34;99633.88;5098757;28;20055;-74
2024/03/02 13:47:41;;;;;;;3.20;2.75;;;;;;;17.67;77.75;99640.19;5098435;28;20051;-82
2024/03/02 13:50:46;;;;;;;3.70;2.47;;;;;;;17.52;78.05;99633.00;5082469;28;20067;-79
2024/03/02 13:53:50;;;;;;;3.67;2.67;;;;;;;17.55;78.53;99638.00;5096433;28;20055;-78
2024/03/02 13:56:58;;;;;;;8.00;3.33;;;;;;;17.64;78.48;99635.16;5096742;28;20067;-76
2024/03/02 14:00:03;;;;;;;7.22;3.33;;;;;;;17.82;78.62;99632.81;5096962;28;20043;-82
2024/03/02 14:03:16;;;;;;;3.95;2.60;;;;;;;17.83;78.43;99639.88;5096806;28;20051;-76
2024/03/02 14:06:20;;;;;;;5.68;2.92;;;;;;;17.75;78.35;99640.88;5096349;28;20051;-84
2024/03/02 14:09:25;;;;;;;3.95;2.60;;;;;;;18.11;77.90;99644.28;5096659;28;20106;-84
2024/03/02 14:12:31;;;;;;;4.03;2.85;;;;;;;17.91;77.96;99642.47;5096474;28;20043;-87
2024/03/02 14:15:39;;;;;;;5.32;3.05;;;;;;;17.63;78.61;99638.94;5096532;28;20051;-85
2024/03/02 14:18:44;;;;;;;5.03;2.80;;;;;;;17.69;79.42;99643.56;5095721;28;20055;-84
2024/03/02 14:21:48;;;;;;;4.55;2.50;;;;;;;17.79;78.58;99636.75;5084018;28;20051;-83
2024/03/02 14:24:52;;;;;;;3.22;2.42;;;;;;;17.66;79.06;99643.94;5096069;28;20051;-86
2024/03/02 14:27:57;;;;;;;3.65;2.22;;;;;;;17.76;78.19;99639.84;5083862;28;20055;-84